createdAt,value
2018-06-21T00:00:37.832Z,53.22
2018-06-21T00:01:38.000Z,68.12
2018-06-21T00:02:38.169Z,54.44
2018-06-21T00:03:38.337Z,54.20
2018-06-21T00:04:38.515Z,54.44
2018-06-21T00:05:38.680Z,54.44
2018-06-21T00:09:21.411Z,60.79
2018-06-21T00:10:21.587Z,42.97
2018-06-21T00:11:21.752Z,46.39
2018-06-21T00:12:21.936Z,53.96
2018-06-21T00:13:22.102Z,53.22
2018-06-21T00:14:22.273Z,62.50
2018-06-21T00:15:22.439Z,49.07
2018-06-21T00:16:22.606Z,47.36
2018-06-21T00:17:22.774Z,48.83
2018-06-21T00:18:22.942Z,55.18
2018-06-21T00:19:23.102Z,50.54
2018-06-21T00:20:23.269Z,49.07
2018-06-21T00:21:23.442Z,55.18
2018-06-21T00:22:23.606Z,59.08
2018-06-21T00:26:06.055Z,51.03
2018-06-21T00:27:06.223Z,52.00
2018-06-21T00:28:06.390Z,42.24
2018-06-21T00:29:06.557Z,38.82
2018-06-21T00:30:06.722Z,55.42
2018-06-21T00:31:06.893Z,46.14
2018-06-21T00:32:07.056Z,65.92
2018-06-21T00:33:07.226Z,44.19
2018-06-21T00:34:07.396Z,43.95
2018-06-21T00:37:49.861Z,43.95
2018-06-21T00:38:50.031Z,51.51
2018-06-21T00:39:50.198Z,51.51
2018-06-21T00:40:50.374Z,53.71
2018-06-21T00:41:50.538Z,44.19
2018-06-21T00:42:50.707Z,41.99
2018-06-21T00:43:50.877Z,46.39
2018-06-21T00:44:51.044Z,51.76
2018-06-21T00:45:51.223Z,54.20
2018-06-21T00:46:51.395Z,55.91
2018-06-21T00:47:51.563Z,43.21
2018-06-21T00:48:51.742Z,63.72
2018-06-21T00:49:51.906Z,50.78
2018-06-21T00:50:52.076Z,45.65
2018-06-21T01:14:03.183Z,43.21
2018-06-21T01:15:03.338Z,46.14
2018-06-21T01:16:03.493Z,41.26
2018-06-21T01:17:03.668Z,42.24
2018-06-21T01:18:03.837Z,47.36
2018-06-21T01:19:04.009Z,54.69
2018-06-21T01:20:04.179Z,51.27
2018-06-21T01:21:04.342Z,44.19
2018-06-21T01:22:04.515Z,60.55
2018-06-21T01:23:04.678Z,40.53
2018-06-21T01:24:04.865Z,42.48
2018-06-21T01:25:05.035Z,47.61
2018-06-21T01:26:05.188Z,41.26
2018-06-21T01:27:05.373Z,41.99
2018-06-21T01:30:47.809Z,42.24
2018-06-21T01:31:47.981Z,43.95
2018-06-21T01:32:48.159Z,44.68
2018-06-21T01:33:48.332Z,46.88
2018-06-21T01:34:48.489Z,49.32
2018-06-21T01:35:48.652Z,40.77
2018-06-21T01:36:48.817Z,46.39
2018-06-21T01:37:49.009Z,43.95
2018-06-21T01:38:49.171Z,54.20
2018-06-21T01:39:49.342Z,53.96
2018-06-21T01:40:49.515Z,44.43
2018-06-21T01:41:49.674Z,65.67
2018-06-21T01:42:49.864Z,67.87
2018-06-21T01:43:50.031Z,46.14
2018-06-21T01:47:32.762Z,46.14
2018-06-21T01:48:32.933Z,51.27
2018-06-21T01:49:33.107Z,49.56
2018-06-21T01:50:33.259Z,44.19
2018-06-21T01:51:33.442Z,53.47
2018-06-21T01:52:33.610Z,52.73
2018-06-21T01:53:33.779Z,50.54
2018-06-21T01:54:33.943Z,40.53
2018-06-21T01:55:34.111Z,46.88
2018-06-21T01:56:34.281Z,52.73
2018-06-21T01:57:34.448Z,49.07
2018-06-21T01:58:34.619Z,52.73
2018-06-21T01:59:34.788Z,52.25
2018-06-21T02:00:34.971Z,52.98
2018-06-21T02:04:17.388Z,52.98
2018-06-21T02:05:17.567Z,46.63
2018-06-21T02:06:17.728Z,53.22
2018-06-21T02:07:17.898Z,66.16
2018-06-21T02:08:18.071Z,44.68
2018-06-21T02:09:18.238Z,51.51
2018-06-21T02:10:18.404Z,60.06
2018-06-21T02:11:18.572Z,62.26
2018-06-21T02:12:18.739Z,56.15
2018-06-21T02:13:18.893Z,53.96
2018-06-21T02:14:19.081Z,45.65
2018-06-21T02:15:19.248Z,53.47
2018-06-21T02:16:19.420Z,54.69
2018-06-21T02:17:19.585Z,53.96
2018-06-21T02:24:10.379Z,56.88
2018-06-21T02:25:10.557Z,54.93
2018-06-21T02:26:10.720Z,55.66
2018-06-21T02:27:10.893Z,62.99
2018-06-21T02:28:11.061Z,58.84
2018-06-21T02:29:11.227Z,50.54
2018-06-21T02:30:11.401Z,50.29
2018-06-21T02:31:11.568Z,43.95
2018-06-21T02:32:11.739Z,58.59
2018-06-21T02:33:11.901Z,54.69
2018-06-21T02:34:12.110Z,54.20
2018-06-21T02:35:12.242Z,54.69
2018-06-21T02:36:12.400Z,53.96
2018-06-21T02:37:12.567Z,56.64
2018-06-21T02:40:55.290Z,53.22
2018-06-21T02:41:55.462Z,57.37
2018-06-21T02:42:55.627Z,59.81
2018-06-21T02:43:55.795Z,71.78
2018-06-21T02:44:55.962Z,61.77
2018-06-21T02:45:56.138Z,56.15
2018-06-21T02:46:56.306Z,54.20
2018-06-21T02:47:57.372Z,57.37
2018-06-21T02:48:56.668Z,58.59
2018-06-21T02:49:56.841Z,54.20
2018-06-21T02:50:57.004Z,55.66
2018-06-21T02:51:57.179Z,53.96
2018-06-21T02:52:57.346Z,66.41
2018-06-21T02:53:57.520Z,54.69
2018-06-21T03:03:58.418Z,59.81
2018-06-21T03:04:58.526Z,55.18
2018-06-21T03:05:58.692Z,56.15
2018-06-21T03:06:58.855Z,56.40
2018-06-21T03:07:59.021Z,56.40
2018-06-21T03:08:59.191Z,65.43
2018-06-21T03:09:59.356Z,75.44
2018-06-21T03:10:59.520Z,53.71
2018-06-21T03:11:59.695Z,67.87
2018-06-21T03:12:59.861Z,63.23
2018-06-21T03:14:00.040Z,54.93
2018-06-21T03:15:00.200Z,61.28
2018-06-21T03:16:00.374Z,61.52
2018-06-21T03:17:01.289Z,58.84
2018-06-21T03:20:43.272Z,63.96
2018-06-21T03:21:43.443Z,71.78
2018-06-21T03:22:43.607Z,70.31
2018-06-21T03:23:43.771Z,69.34
2018-06-21T03:24:43.943Z,76.42
2018-06-21T03:25:44.109Z,78.61
2018-06-21T03:26:44.282Z,78.37
2018-06-21T03:27:44.445Z,91.55
2018-06-21T03:28:44.613Z,69.34
2018-06-21T03:32:27.045Z,72.27
2018-06-21T03:33:27.213Z,72.27
2018-06-21T03:34:27.379Z,62.74
2018-06-21T03:35:27.577Z,67.63
2018-06-21T03:36:27.732Z,64.70
2018-06-21T03:37:27.895Z,54.44
2018-06-21T03:38:28.081Z,65.67
2018-06-21T03:39:28.238Z,65.67
2018-06-21T03:40:28.408Z,59.81
2018-06-21T03:44:11.129Z,65.19
2018-06-21T03:45:11.307Z,69.09
2018-06-21T03:46:11.473Z,77.39
2018-06-21T03:47:11.639Z,84.47
2018-06-21T03:48:11.814Z,66.65
2018-06-21T03:49:11.990Z,71.78
2018-06-21T03:50:12.157Z,77.88
2018-06-21T03:51:12.324Z,60.55
2018-06-21T03:52:12.542Z,60.06
2018-06-21T03:55:55.219Z,66.89
2018-06-21T03:56:55.388Z,65.92
2018-06-21T03:57:55.551Z,74.46
2018-06-21T03:58:55.720Z,62.99
2018-06-21T03:59:55.888Z,58.84
2018-06-21T04:00:56.051Z,78.86
2018-06-21T04:01:56.219Z,68.60
2018-06-21T04:02:56.386Z,74.95
2018-06-21T04:03:56.551Z,70.80
2018-06-21T04:07:38.998Z,63.96
2018-06-21T04:08:39.165Z,58.84
2018-06-21T04:09:39.336Z,61.04
2018-06-21T04:10:39.506Z,64.94
2018-06-21T04:11:39.676Z,69.34
2018-06-21T04:12:39.837Z,67.14
2018-06-21T04:13:40.013Z,71.29
2018-06-21T04:14:40.176Z,67.14
2018-06-21T04:15:40.343Z,67.63
2018-06-21T04:16:40.505Z,59.81
2018-06-21T04:17:40.670Z,59.33
2018-06-21T04:18:40.831Z,61.04
2018-06-21T04:19:41.014Z,58.11
2018-06-21T04:20:41.172Z,69.09
2018-06-21T04:24:23.615Z,61.77
2018-06-21T04:25:23.788Z,68.60
2018-06-21T04:26:23.957Z,84.72
2018-06-21T04:27:24.127Z,72.27
2018-06-21T04:28:24.290Z,66.16
2018-06-21T04:29:24.473Z,65.43
2018-06-21T04:30:32.083Z,73.00
2018-06-21T04:31:24.859Z,71.29
2018-06-21T04:32:25.066Z,67.87
2018-06-21T04:33:25.188Z,60.79
2018-06-21T04:34:25.356Z,68.85
2018-06-21T04:35:25.523Z,83.98
2018-06-21T04:36:25.697Z,79.59
2018-06-21T04:37:25.869Z,69.34
2018-06-21T04:38:26.135Z,65.43
2018-06-21T04:39:26.215Z,74.71
2018-06-21T04:40:26.432Z,79.83
2018-06-21T04:41:26.541Z,68.60
2018-06-21T04:42:26.709Z,65.92
2018-06-21T04:43:26.878Z,74.22
2018-06-21T04:44:27.039Z,65.43
2018-06-21T04:48:09.478Z,67.14
2018-06-21T04:49:09.654Z,66.41
2018-06-21T04:50:09.824Z,62.01
2018-06-21T04:51:09.992Z,67.63
2018-06-21T04:52:17.332Z,61.52
2018-06-21T04:53:10.372Z,63.96
2018-06-21T04:54:10.549Z,67.14
2018-06-21T04:55:10.712Z,71.29
2018-06-21T04:56:10.880Z,70.07
2018-06-21T04:57:11.043Z,81.05
2018-06-21T04:58:18.405Z,71.53
2018-06-21T04:59:11.314Z,66.65
2018-06-21T05:00:11.473Z,81.79
2018-06-21T05:01:11.638Z,72.02
2018-06-21T05:02:11.810Z,64.45
2018-06-21T05:03:11.979Z,62.74
2018-06-21T05:04:12.145Z,79.10
2018-06-21T05:05:13.895Z,69.82
2018-06-21T05:06:12.434Z,76.66
2018-06-21T05:07:14.387Z,77.64
2018-06-21T05:08:12.816Z,68.60
2018-06-21T05:09:12.976Z,64.45
2018-06-21T05:10:13.161Z,69.09
2018-06-21T05:11:13.313Z,75.20
2018-06-21T05:12:21.430Z,71.78
2018-06-21T05:13:13.600Z,85.69
2018-06-21T05:14:13.765Z,80.32
2018-06-21T05:15:13.941Z,71.29
2018-06-21T05:16:15.905Z,78.61
2018-06-21T05:17:14.338Z,70.07
2018-06-21T05:18:14.532Z,64.21
2018-06-21T05:19:14.674Z,65.92
2018-06-21T05:20:14.861Z,67.14
2018-06-21T05:21:15.041Z,65.92
2018-06-21T05:22:15.203Z,61.52
2018-06-21T05:23:15.370Z,80.81
2018-06-21T05:24:15.540Z,73.73
2018-06-21T05:25:15.711Z,74.22
2018-06-21T05:26:15.876Z,81.05
2018-06-21T05:27:16.044Z,75.44
2018-06-21T05:30:59.785Z,81.54
2018-06-21T05:31:59.965Z,74.22
2018-06-21T05:33:00.173Z,64.94
2018-06-21T05:34:00.301Z,75.44
2018-06-21T05:35:00.446Z,78.13
2018-06-21T05:36:00.611Z,77.64
2018-06-21T05:37:00.781Z,74.46
2018-06-21T05:38:00.943Z,68.60
2018-06-21T05:39:01.108Z,68.60
2018-06-21T05:40:01.287Z,66.65
2018-06-21T05:41:01.456Z,67.38
2018-06-21T05:42:01.609Z,66.65
2018-06-21T05:43:01.777Z,73.49
2018-06-21T05:44:01.959Z,74.22
2018-06-21T05:47:34.406Z,72.51
2018-06-21T05:48:34.579Z,69.09
2018-06-21T05:49:34.750Z,72.02
2018-06-21T05:50:34.924Z,65.92
2018-06-21T05:51:35.090Z,71.53
2018-06-21T05:52:35.260Z,64.45
2018-06-21T05:53:35.424Z,69.34
2018-06-21T05:54:36.261Z,69.09
2018-06-21T05:55:35.804Z,77.64
2018-06-21T05:56:36.055Z,65.67
2018-06-21T05:57:36.146Z,69.58
2018-06-21T05:58:36.315Z,67.38
2018-06-21T05:59:36.483Z,70.80
2018-06-21T06:00:36.652Z,72.51
2018-06-21T06:04:19.094Z,74.71
2018-06-21T06:05:19.270Z,70.31
2018-06-21T06:06:19.435Z,67.38
2018-06-21T06:07:19.610Z,67.63
2018-06-21T06:08:19.845Z,67.14
2018-06-21T06:09:19.937Z,66.41
2018-06-21T06:10:20.111Z,83.74
2018-06-21T06:11:20.282Z,78.13
2018-06-21T06:12:20.463Z,77.64
2018-06-21T06:16:02.888Z,72.02
2018-06-21T06:17:03.079Z,82.03
2018-06-21T06:18:03.226Z,84.72
2018-06-21T06:19:03.402Z,69.34
2018-06-21T06:20:03.623Z,69.82
2018-06-21T06:21:11.694Z,71.53
2018-06-21T06:22:03.865Z,71.04
2018-06-21T06:23:04.056Z,80.57
2018-06-21T06:24:11.381Z,88.13
2018-06-21T06:25:04.415Z,95.46
2018-06-21T06:26:04.603Z,88.87
2018-06-21T06:27:04.783Z,91.80
2018-06-21T06:28:04.940Z,77.64
2018-06-21T06:29:05.098Z,83.50
2018-06-21T06:30:05.330Z,83.25
2018-06-21T06:31:05.472Z,80.08
2018-06-21T06:32:05.624Z,73.49
2018-06-21T06:33:05.798Z,78.37
2018-06-21T06:34:05.976Z,76.42
2018-06-21T06:42:26.843Z,77.39
2018-06-21T06:43:27.043Z,67.38
2018-06-21T06:44:27.216Z,65.92
2018-06-21T06:45:27.371Z,65.92
2018-06-21T06:46:27.544Z,92.77
2018-06-21T06:47:27.712Z,80.32
2018-06-21T06:48:27.880Z,66.41
2018-06-21T06:49:28.098Z,69.34
2018-06-21T06:50:28.245Z,70.56
2018-06-21T06:51:36.099Z,66.16
2018-06-21T06:52:28.633Z,68.12
2018-06-21T06:53:28.807Z,66.89
2018-06-21T06:54:29.009Z,72.27
2018-06-21T06:55:29.136Z,77.88
2018-06-21T06:56:29.305Z,63.23
2018-06-21T06:57:36.941Z,68.36
2018-06-21T06:58:29.593Z,66.89
2018-06-21T06:59:29.767Z,67.38
2018-06-21T07:00:29.943Z,69.82
2018-06-21T07:01:30.119Z,71.53
2018-06-21T07:02:30.289Z,73.49
2018-06-21T07:03:30.457Z,73.97
2018-06-21T07:04:30.615Z,70.07
2018-06-21T07:05:30.780Z,73.00
2018-06-21T07:06:30.952Z,73.97
2018-06-21T07:07:32.055Z,78.86
2018-06-21T07:08:31.321Z,75.68
2018-06-21T07:09:31.437Z,70.56
2018-06-21T07:10:31.606Z,66.41
2018-06-21T07:11:31.777Z,67.63
2018-06-21T07:15:14.164Z,74.95
2018-06-21T07:16:14.335Z,64.94
2018-06-21T07:17:14.516Z,64.70
2018-06-21T07:18:14.690Z,78.86
2018-06-21T07:19:14.859Z,67.87
2018-06-21T07:20:15.094Z,76.17
2018-06-21T07:21:16.087Z,73.24
2018-06-21T07:22:22.537Z,69.34
2018-06-21T07:23:15.582Z,73.73
2018-06-21T07:24:15.774Z,74.46
2018-06-21T07:25:23.104Z,71.29
2018-06-21T07:26:16.145Z,70.07
2018-06-21T07:27:16.343Z,63.96
2018-06-21T07:28:47.507Z,65.19
2018-06-21T07:29:16.715Z,65.92
2018-06-21T07:30:16.890Z,72.27
2018-06-21T07:31:17.059Z,72.02
2018-06-21T07:32:17.243Z,73.00
2018-06-21T07:33:17.390Z,71.04
2018-06-21T07:34:18.131Z,78.13
2018-06-21T07:35:17.713Z,72.51
2018-06-21T07:36:17.868Z,78.61
2018-06-21T07:37:18.634Z,74.95
2018-06-21T07:38:18.173Z,67.14
2018-06-21T07:39:18.344Z,72.51
2018-06-21T07:43:00.844Z,72.27
2018-06-21T07:44:01.011Z,67.14
2018-06-21T07:45:01.177Z,68.60
2018-06-21T07:46:01.338Z,64.70
2018-06-21T07:47:01.522Z,62.99
2018-06-21T07:48:01.681Z,65.67
2018-06-21T07:49:01.858Z,70.07
2018-06-21T07:50:02.029Z,71.04
2018-06-21T07:51:02.187Z,77.39
2018-06-21T07:52:02.369Z,67.63
2018-06-21T07:53:02.546Z,66.41
2018-06-21T07:54:02.716Z,80.81
2018-06-21T07:55:10.548Z,75.44
2018-06-21T07:56:03.088Z,65.43
2018-06-21T07:57:03.259Z,74.95
2018-06-21T07:58:03.416Z,76.42
2018-06-21T07:59:03.665Z,70.80
2018-06-21T08:00:03.783Z,66.89
2018-06-21T08:01:03.959Z,74.22
2018-06-21T08:02:04.135Z,70.80
2018-06-21T08:03:04.298Z,70.56
2018-06-21T08:04:06.160Z,69.34
2018-06-21T08:05:04.589Z,70.80
2018-06-21T08:06:04.760Z,70.31
2018-06-21T08:07:05.670Z,66.16
2018-06-21T08:08:05.091Z,70.56
2018-06-21T08:09:05.253Z,75.93
2018-06-21T08:12:48.016Z,77.15
2018-06-21T08:13:48.178Z,68.36
2018-06-21T08:14:48.343Z,63.96
2018-06-21T08:15:48.521Z,63.72
2018-06-21T08:16:48.693Z,73.49
2018-06-21T08:17:48.860Z,77.88
2018-06-21T08:18:49.027Z,69.09
2018-06-21T08:19:49.201Z,71.78
2018-06-21T08:20:49.371Z,77.39
2018-06-21T08:21:57.201Z,75.20
2018-06-21T08:22:49.739Z,80.32
2018-06-21T08:23:49.910Z,74.46
2018-06-21T08:24:50.085Z,75.20
2018-06-21T08:25:50.251Z,67.63
2018-06-21T08:26:57.874Z,73.24
2018-06-21T08:27:50.547Z,74.71
2018-06-21T08:28:50.755Z,71.04
2018-06-21T08:29:50.888Z,66.16
2018-06-21T08:30:51.062Z,78.37
2018-06-21T08:31:51.235Z,70.07
2018-06-21T08:32:51.407Z,69.34
2018-06-21T08:33:51.575Z,90.33
2018-06-21T08:34:51.743Z,68.12
2018-06-21T08:35:51.911Z,70.80
2018-06-21T08:36:52.082Z,76.42
2018-06-21T08:37:52.280Z,74.71
2018-06-21T08:38:53.160Z,73.00
2018-06-21T08:39:52.541Z,69.58
2018-06-21T08:40:52.731Z,69.58
2018-06-21T08:44:25.197Z,73.49
2018-06-21T08:45:25.396Z,64.45
2018-06-21T08:46:25.541Z,66.41
2018-06-21T08:47:25.721Z,67.38
2018-06-21T08:51:08.441Z,67.87
2018-06-21T08:52:08.735Z,96.68
2018-06-21T08:53:08.802Z,65.92
2018-06-21T08:54:09.001Z,73.49
2018-06-21T08:55:09.165Z,73.00
2018-06-21T08:56:09.344Z,66.16
2018-06-21T08:57:09.513Z,65.92
2018-06-21T08:58:10.527Z,69.58
2018-06-21T08:59:09.819Z,81.79
2018-06-21T09:00:09.994Z,74.46
2018-06-21T09:01:10.176Z,82.28
2018-06-21T09:02:10.335Z,68.36
2018-06-21T09:03:11.013Z,67.63
2018-06-21T09:04:10.695Z,68.85
2018-06-21T09:07:53.145Z,78.61
2018-06-21T09:08:53.304Z,76.66
2018-06-21T09:09:53.485Z,73.49
2018-06-21T09:10:53.657Z,81.30
2018-06-21T09:11:53.828Z,88.87
2018-06-21T09:12:54.000Z,84.96
2018-06-21T09:13:54.170Z,95.95
2018-06-21T09:14:54.351Z,89.84
2018-06-21T09:15:54.523Z,90.09
2018-06-21T09:16:54.715Z,88.13
2018-06-21T09:17:54.898Z,92.29
2018-06-21T09:18:55.995Z,92.53
2018-06-21T09:19:55.301Z,99.37
2018-06-21T09:20:55.476Z,97.41
2018-06-21T09:24:27.933Z,80.08
2018-06-21T09:25:28.111Z,66.16
2018-06-21T09:26:28.263Z,75.20
2018-06-21T09:27:28.432Z,71.29
2018-06-21T09:28:28.613Z,67.87
2018-06-21T09:29:28.781Z,67.38
2018-06-21T09:30:28.952Z,76.42
2018-06-21T09:31:36.584Z,77.39
2018-06-21T09:32:29.250Z,66.89
2018-06-21T09:33:29.422Z,73.97
2018-06-21T09:34:29.579Z,77.64
2018-06-21T09:35:29.750Z,67.38
2018-06-21T09:36:29.919Z,71.04
2018-06-21T09:37:30.097Z,82.03
2018-06-21T09:38:30.261Z,71.78
2018-06-21T09:39:30.427Z,68.12
2018-06-21T09:40:30.599Z,73.97
2018-06-21T09:44:04.357Z,69.34
2018-06-21T09:45:03.267Z,69.34
2018-06-21T09:46:03.437Z,69.82
2018-06-21T09:47:03.617Z,69.09
2018-06-21T09:48:03.781Z,75.20
2018-06-21T09:49:03.952Z,63.96
2018-06-21T09:50:04.110Z,75.44
2018-06-21T09:51:04.294Z,69.09
2018-06-21T09:52:11.913Z,69.09
2018-06-21T09:53:04.626Z,75.44
2018-06-21T09:54:04.792Z,72.27
2018-06-21T09:55:04.955Z,67.14
2018-06-21T09:56:07.923Z,81.05
2018-06-21T09:57:05.338Z,74.46
2018-06-21T09:58:05.515Z,72.02
2018-06-21T09:59:05.680Z,81.54
2018-06-21T10:00:05.850Z,69.58
2018-06-21T10:01:06.022Z,70.80
2018-06-21T10:02:06.191Z,70.80
2018-06-21T10:03:06.364Z,69.34
2018-06-21T10:04:08.433Z,67.14
2018-06-21T10:05:06.729Z,68.12
2018-06-21T10:06:08.427Z,65.43
2018-06-21T10:09:50.245Z,71.04
2018-06-21T10:10:49.543Z,72.02
2018-06-21T10:11:49.704Z,67.14
2018-06-21T10:12:49.881Z,65.92
2018-06-21T10:13:50.047Z,81.05
2018-06-21T10:14:50.214Z,71.29
2018-06-21T10:15:50.423Z,67.87
2018-06-21T10:16:50.554Z,65.67
2018-06-21T10:17:50.720Z,70.07
2018-06-21T10:21:33.153Z,75.68
2018-06-21T10:22:33.716Z,72.51
2018-06-21T10:23:33.486Z,76.17
2018-06-21T10:24:42.050Z,74.71
2018-06-21T10:25:33.978Z,69.58
2018-06-21T10:26:33.967Z,70.80
2018-06-21T10:27:46.084Z,73.97
2018-06-21T10:28:34.371Z,84.23
2018-06-21T10:29:34.543Z,74.22
2018-06-21T10:30:43.041Z,72.75
2018-06-21T10:31:34.822Z,70.56
2018-06-21T10:32:35.018Z,76.42
2018-06-21T10:33:35.186Z,74.46
2018-06-21T10:34:35.364Z,69.34
2018-06-21T10:35:35.528Z,71.04
2018-06-21T10:36:35.699Z,78.37
2018-06-21T10:37:35.867Z,70.56
2018-06-21T10:38:36.041Z,75.68
2018-06-21T10:39:36.221Z,84.72
2018-06-21T10:40:36.420Z,77.88
2018-06-21T10:41:36.622Z,71.53
2018-06-21T10:42:36.844Z,69.34
2018-06-21T10:43:36.941Z,71.78
2018-06-21T10:44:37.111Z,76.90
2018-06-21T10:45:45.569Z,73.00
2018-06-21T10:46:37.451Z,65.67
2018-06-21T10:47:38.605Z,78.61
2018-06-21T10:48:37.779Z,81.54
2018-06-21T10:49:37.951Z,80.81
2018-06-21T10:50:38.126Z,67.87
2018-06-21T10:51:42.121Z,69.58
2018-06-21T10:52:46.036Z,69.09
2018-06-21T10:53:38.758Z,79.59
2018-06-21T10:54:38.943Z,70.80
2018-06-21T10:55:39.109Z,76.66
2018-06-21T10:56:39.364Z,72.51
2018-06-21T10:57:39.825Z,70.07
2018-06-21T10:58:42.200Z,77.64
2018-06-21T10:59:39.753Z,77.15
2018-06-21T11:00:39.934Z,75.68
2018-06-21T11:01:40.089Z,69.82
2018-06-21T11:02:40.254Z,71.78
2018-06-21T11:03:41.150Z,69.82
2018-06-21T11:04:40.570Z,66.41
2018-06-21T11:05:40.672Z,74.22
2018-06-21T11:06:41.568Z,79.59
2018-06-21T11:10:24.201Z,82.52
2018-06-21T11:11:23.508Z,80.81
2018-06-21T11:12:24.209Z,89.11
2018-06-21T11:13:31.547Z,73.24
2018-06-21T11:14:24.085Z,73.73
2018-06-21T11:15:24.254Z,79.10
2018-06-21T11:16:24.441Z,76.66
2018-06-21T11:17:24.612Z,70.31
2018-06-21T11:18:24.774Z,68.12
2018-06-21T11:19:24.942Z,84.23
2018-06-21T11:20:25.112Z,76.17
2018-06-21T11:21:25.313Z,79.35
2018-06-21T11:22:25.468Z,80.57
2018-06-21T11:23:26.148Z,79.10
2018-06-21T11:24:33.520Z,66.16
2018-06-21T11:25:25.957Z,68.36
2018-06-21T11:26:26.109Z,83.50
2018-06-21T11:27:26.277Z,73.24
2018-06-21T11:28:26.456Z,66.65
2018-06-21T11:29:26.623Z,64.70
2018-06-21T11:30:26.809Z,71.78
2018-06-21T11:31:27.741Z,73.97
2018-06-21T11:32:27.159Z,73.00
2018-06-21T11:33:27.330Z,65.67
2018-06-21T11:34:35.463Z,82.52
2018-06-21T11:35:27.635Z,70.80
2018-06-21T11:36:27.803Z,71.53
2018-06-21T11:37:27.971Z,81.54
2018-06-21T11:38:28.211Z,75.44
2018-06-21T11:39:28.321Z,76.17
2018-06-21T11:40:30.255Z,77.39
2018-06-21T11:41:30.250Z,68.60
2018-06-21T11:42:36.014Z,73.24
2018-06-21T11:43:29.916Z,66.41
2018-06-21T11:44:29.155Z,66.89
2018-06-21T11:45:30.280Z,75.20
2018-06-21T11:46:29.450Z,71.04
2018-06-21T11:47:29.622Z,76.17
2018-06-21T11:48:29.796Z,72.27
2018-06-21T11:49:30.787Z,71.78
2018-06-21T11:50:38.048Z,87.89
2018-06-21T11:51:30.207Z,64.94
2018-06-21T11:52:30.381Z,73.73
2018-06-21T11:53:30.546Z,69.82
2018-06-21T11:54:30.726Z,74.22
2018-06-21T11:55:30.909Z,70.31
2018-06-21T11:56:31.047Z,63.72
2018-06-21T11:57:31.217Z,73.00
2018-06-21T11:58:31.388Z,75.93
2018-06-21T11:59:31.556Z,68.85
2018-06-21T12:00:31.726Z,76.66
2018-06-21T12:01:31.893Z,79.10
2018-06-21T12:02:32.081Z,74.71
2018-06-21T12:03:32.236Z,73.73
2018-06-21T12:04:40.392Z,68.60
2018-06-21T12:05:32.550Z,69.82
2018-06-21T12:06:32.721Z,68.36
2018-06-21T12:07:33.846Z,65.92
2018-06-21T12:08:33.017Z,64.70
2018-06-21T12:09:33.182Z,72.02
2018-06-21T12:10:34.353Z,68.36
2018-06-21T12:11:33.536Z,72.02
2018-06-21T12:12:33.703Z,71.29
2018-06-21T12:13:33.875Z,73.49
2018-06-21T12:14:34.044Z,73.24
2018-06-21T12:18:17.781Z,71.29
2018-06-21T12:19:17.990Z,69.58
2018-06-21T12:20:18.166Z,67.63
2018-06-21T12:21:18.341Z,76.17
2018-06-21T12:22:18.508Z,67.38
2018-06-21T12:23:18.678Z,71.04
2018-06-21T12:24:26.507Z,66.89
2018-06-21T12:25:19.049Z,70.07
2018-06-21T12:26:19.272Z,71.78
2018-06-21T12:27:19.385Z,70.31
2018-06-21T12:28:27.038Z,70.07
2018-06-21T12:29:19.714Z,65.19
2018-06-21T12:30:19.872Z,96.19
2018-06-21T12:31:20.052Z,74.95
2018-06-21T12:32:20.217Z,80.08
2018-06-21T12:33:20.389Z,72.51
2018-06-21T12:34:20.569Z,69.09
2018-06-21T12:35:20.729Z,71.29
2018-06-21T12:36:20.918Z,74.22
2018-06-21T12:37:21.088Z,73.00
2018-06-21T12:38:21.273Z,74.46
2018-06-21T12:39:21.460Z,69.34
2018-06-21T12:40:21.617Z,70.56
2018-06-21T12:41:21.785Z,84.23
2018-06-21T12:42:21.977Z,72.02
2018-06-21T12:45:54.473Z,71.04
2018-06-21T12:46:54.665Z,73.49
2018-06-21T12:47:54.827Z,68.85
2018-06-21T12:48:54.997Z,65.67
2018-06-21T12:49:55.173Z,70.07
2018-06-21T12:50:55.346Z,69.34
2018-06-21T12:51:55.520Z,78.61
2018-06-21T12:52:55.687Z,67.14
2018-06-21T12:53:55.877Z,78.13
2018-06-21T12:57:28.279Z,63.23
2018-06-21T12:58:28.451Z,77.88
2018-06-21T12:59:28.613Z,77.15
2018-06-21T13:00:28.779Z,72.02
2018-06-21T13:01:28.950Z,74.22
2018-06-21T13:02:29.117Z,69.34
2018-06-21T13:03:29.288Z,76.17
2018-06-21T13:04:29.453Z,64.21
2018-06-21T13:05:29.661Z,67.87
2018-06-21T13:09:02.100Z,72.75
2018-06-21T13:10:02.295Z,74.95
2018-06-21T13:11:04.446Z,65.92
2018-06-21T13:12:02.614Z,72.02
2018-06-21T13:13:02.789Z,68.85
2018-06-21T13:14:02.960Z,74.71
2018-06-21T13:15:03.133Z,67.14
2018-06-21T13:16:03.291Z,68.85
2018-06-21T13:17:03.453Z,72.51
2018-06-21T13:18:03.625Z,86.43
2018-06-21T13:19:03.801Z,69.09
2018-06-21T13:20:03.969Z,77.64
2018-06-21T13:21:04.150Z,70.07
2018-06-21T13:22:12.031Z,73.24
2018-06-21T13:23:04.518Z,71.29
2018-06-21T13:24:04.680Z,79.83
2018-06-21T13:25:13.508Z,79.83
2018-06-21T13:26:05.044Z,73.24
2018-06-21T13:27:05.211Z,71.29
2018-06-21T13:28:05.381Z,67.63
2018-06-21T13:29:05.555Z,80.57
2018-06-21T13:30:05.722Z,73.73
2018-06-21T13:31:05.895Z,72.75
2018-06-21T13:32:06.065Z,68.12
2018-06-21T13:33:06.233Z,71.78
2018-06-21T13:34:06.413Z,70.56
2018-06-21T13:35:06.597Z,75.68
2018-06-21T13:36:06.752Z,69.82
2018-06-21T13:37:06.962Z,66.89
2018-06-21T13:38:07.080Z,70.07
2018-06-21T13:39:07.251Z,74.22
2018-06-21T13:43:50.138Z,74.71
2018-06-21T13:44:50.326Z,65.92
2018-06-21T13:45:50.494Z,68.60
2018-06-21T13:46:50.666Z,70.80
2018-06-21T13:47:50.837Z,70.07
2018-06-21T13:48:52.749Z,69.34
2018-06-21T13:49:59.135Z,70.56
2018-06-21T13:50:51.292Z,76.66
2018-06-21T13:51:51.502Z,79.10
2018-06-21T13:52:52.293Z,70.80
2018-06-21T13:53:51.860Z,71.04
2018-06-21T13:54:52.026Z,68.12
2018-06-21T13:55:52.184Z,78.86
2018-06-21T13:56:52.380Z,75.20
2018-06-21T13:57:52.554Z,72.51
2018-06-21T13:58:52.746Z,79.10
2018-06-21T13:59:52.920Z,70.80
2018-06-21T14:00:53.083Z,79.10
2018-06-21T14:01:53.280Z,78.86
2018-06-21T14:02:53.457Z,79.10
2018-06-21T14:03:53.661Z,72.02
2018-06-21T14:07:36.226Z,78.13
2018-06-21T14:08:36.596Z,68.60
2018-06-21T14:12:08.304Z,67.87
2018-06-21T14:13:08.491Z,77.15
2018-06-21T14:14:08.669Z,65.19
2018-06-21T14:15:08.869Z,72.02
2018-06-21T14:16:09.666Z,68.36
2018-06-21T14:17:09.201Z,64.94
2018-06-21T14:18:09.377Z,68.60
2018-06-21T14:19:09.569Z,75.20
2018-06-21T14:20:09.719Z,68.12
2018-06-21T14:21:09.907Z,72.75
2018-06-21T14:22:10.063Z,78.61
2018-06-21T14:23:10.229Z,80.57
2018-06-21T14:24:10.399Z,83.98
2018-06-21T14:25:10.569Z,67.38
2018-06-21T14:28:43.305Z,81.79
2018-06-21T14:29:43.480Z,72.75
2018-06-21T14:30:43.649Z,69.34
2018-06-21T14:31:46.355Z,70.80
2018-06-21T14:32:52.010Z,73.49
2018-06-21T14:33:44.068Z,73.49
2018-06-21T14:34:44.245Z,66.16
2018-06-21T14:35:44.419Z,87.89
2018-06-21T14:36:44.590Z,73.73
2018-06-21T14:37:44.864Z,73.24
2018-06-21T14:38:44.927Z,66.65
2018-06-21T14:39:45.105Z,72.02
2018-06-21T14:40:45.304Z,73.73
2018-06-21T14:41:45.495Z,69.09
2018-06-21T14:42:45.663Z,79.83
2018-06-21T14:43:45.836Z,74.22
2018-06-21T14:44:46.913Z,70.31
2018-06-21T14:45:46.224Z,83.74
2018-06-21T14:46:46.394Z,83.50
2018-06-21T14:51:54.908Z,70.07
2018-06-21T14:52:55.075Z,76.90
2018-06-21T14:53:55.283Z,73.97
2018-06-21T14:54:55.452Z,83.25
2018-06-21T14:55:56.545Z,70.80
2018-06-21T14:56:55.811Z,68.60
2018-06-21T14:57:55.935Z,65.19
2018-06-21T14:58:56.104Z,70.31
2018-06-21T14:59:56.280Z,66.89
2018-06-21T15:00:56.440Z,72.27
2018-06-21T15:01:56.602Z,75.44
2018-06-21T15:02:56.830Z,69.34
2018-06-21T15:03:58.959Z,82.52
2018-06-21T15:04:57.338Z,72.02
2018-06-21T15:08:29.611Z,67.38
2018-06-21T15:09:38.277Z,66.16
2018-06-21T15:10:32.501Z,69.09
2018-06-21T15:11:31.980Z,65.19
2018-06-21T15:12:30.295Z,70.31
2018-06-21T15:13:30.457Z,64.45
2018-06-21T15:14:30.680Z,72.02
2018-06-21T15:15:30.802Z,65.67
2018-06-21T15:16:38.143Z,71.04
2018-06-21T15:17:31.273Z,74.22
2018-06-21T15:18:31.367Z,79.10
2018-06-21T15:19:31.560Z,73.49
2018-06-21T15:20:31.754Z,73.73
2018-06-21T15:21:31.942Z,67.14
2018-06-21T15:22:32.102Z,73.97
2018-06-21T15:23:32.285Z,72.02
2018-06-21T15:24:32.463Z,79.83
2018-06-21T15:25:32.635Z,67.14